CheckWX is a tool to help pilots better visualize weather data.  It is not intended as a substitute for an official pre-flight weather briefing.

05:16:45 UTC

KBQK METAR
Brunswick Golden Isles Airport
Brunswick, Georgia, USA
Current

22 mins ago

KBQK 240455Z AUTO 00000KT 3/4SM BR OVC002 16/16 A3008 RMK AO2
Observed
Feb-24 @ 04:55 UTC
Visibility
3/4 SM
Flight Rules
LIFR
Conditions
Mist
Cloud Levels
  • Overcast at 200' AGL
Temperature
16°C / 61°F
Dewpoint
16°C / 61°F
Humidity
100%
Altimeter
30.08" Hg
Pressure
1018.62 hPa
Previous

42 mins ago

KBQK 240435Z AUTO 07004KT 1SM BR OVC002 16/16 A3008 RMK AO2
Observed
Feb-24 @ 04:35 UTC
Wind
  • 070° at 4 KTS
Visibility
1 SM
Flight Rules
LIFR
Conditions
Mist
Cloud Levels
  • Overcast at 200' AGL
Temperature
16°C / 61°F
Dewpoint
16°C / 61°F
Humidity
100%
Altimeter
30.08" Hg
Pressure
1018.62 hPa
Previous

1 hour ago

KBQK 240415Z AUTO 00000KT 1 1/4SM BR OVC002 16/16 A3009 RMK AO2
Observed
Feb-24 @ 04:15 UTC
Visibility
1 1/4 SM
Flight Rules
LIFR
Conditions
Mist
Cloud Levels
  • Overcast at 200' AGL
Temperature
16°C / 61°F
Dewpoint
16°C / 61°F
Humidity
100%
Altimeter
30.09" Hg
Pressure
1018.92 hPa